sensor_id;sensor_type;location;lat;lon;timestamp;pressure;altitude;pressure_sealevel;temperature;humidity
61900;BME280;47853;55.890;37.664;2023-07-22T00:00:26;98619.16;;;19.25;90.65
61900;BME280;47853;55.890;37.664;2023-07-22T00:03:13;98572.16;;;18.70;92.85
61900;BME280;47853;55.890;37.664;2023-07-22T00:05:40;98593.44;;;19.01;90.38
61900;BME280;47853;55.890;37.664;2023-07-22T00:08:49;98557.72;;;18.59;93.74
61900;BME280;47853;55.890;37.664;2023-07-22T00:11:15;98550.19;;;18.90;90.21
61900;BME280;47853;55.890;37.664;2023-07-22T00:13:40;98581.28;;;18.69;92.66
61900;BME280;47853;55.890;37.664;2023-07-22T00:16:08;98560.84;;;18.39;93.21
61900;BME280;47853;55.890;37.664;2023-07-22T00:18:55;98618.44;;;19.30;90.18
61900;BME280;47853;55.890;37.664;2023-07-22T00:28:00;98572.94;;;18.82;89.19
61900;BME280;47853;55.890;37.664;2023-07-22T00:30:48;98536.22;;;18.76;89.31
61900;BME280;47853;55.890;37.664;2023-07-22T00:33:34;98620.56;;;18.99;90.77
61900;BME280;47853;55.890;37.664;2023-07-22T00:42:24;98639.00;;;19.07;87.45
61900;BME280;47853;55.890;37.664;2023-07-22T00:44:50;98562.53;;;19.03;84.69
61900;BME280;47853;55.890;37.664;2023-07-22T00:47:22;98620.53;;;19.11;87.69
61900;BME280;47853;55.890;37.664;2023-07-22T00:49:49;98621.84;;;19.42;85.98
61900;BME280;47853;55.890;37.664;2023-07-22T00:58:37;98585.97;;;18.62;91.03
61900;BME280;47853;55.890;37.664;2023-07-22T01:08:01;98561.91;;;19.30;85.61
61900;BME280;47853;55.890;37.664;2023-07-22T01:22:40;98633.06;;;19.05;90.73
61900;BME280;47853;55.890;37.664;2023-07-22T01:37:32;98653.03;;;19.09;91.73
61900;BME280;47853;55.890;37.664;2023-07-22T01:40:15;98621.16;;;18.89;92.74
61900;BME280;47853;55.890;37.664;2023-07-22T01:42:43;98640.00;;;18.89;92.63
61900;BME280;47853;55.890;37.664;2023-07-22T01:45:08;98662.03;;;18.74;96.20
61900;BME280;47853;55.890;37.664;2023-07-22T01:47:35;98633.16;;;18.81;93.46
61900;BME280;47853;55.890;37.664;2023-07-22T01:50:06;98650.22;;;18.75;94.00
61900;BME280;47853;55.890;37.664;2023-07-22T01:53:00;98671.41;;;18.72;95.25
61900;BME280;47853;55.890;37.664;2023-07-22T01:58:35;98658.09;;;18.65;97.97
61900;BME280;47853;55.890;37.664;2023-07-22T02:01:00;98595.25;;;18.13;99.67
61900;BME280;47853;55.890;37.664;2023-07-22T02:03:28;98609.06;;;18.46;97.61
61900;BME280;47853;55.890;37.664;2023-07-22T02:06:08;98649.19;;;18.23;100.00
61900;BME280;47853;55.890;37.664;2023-07-22T02:08:36;98675.72;;;18.73;100.00
61900;BME280;47853;55.890;37.664;2023-07-22T02:11:03;98677.03;;;18.70;99.95
61900;BME280;47853;55.890;37.664;2023-07-22T02:13:32;98677.00;;;18.29;100.00
61900;BME280;47853;55.890;37.664;2023-07-22T02:15:58;98674.41;;;18.87;99.05
61900;BME280;47853;55.890;37.664;2023-07-22T02:18:24;98671.75;;;18.75;99.37
61900;BME280;47853;55.890;37.664;2023-07-22T02:21:22;98604.72;;;18.16;98.58
61900;BME280;47853;55.890;37.664;2023-07-22T02:23:47;98667.53;;;19.54;91.21
61900;BME280;47853;55.890;37.664;2023-07-22T02:26:15;98673.28;;;18.71;98.18
61900;BME280;47853;55.890;37.664;2023-07-22T02:29:01;98689.16;;;18.84;96.06
61900;BME280;47853;55.890;37.664;2023-07-22T02:31:45;98664.78;;;19.03;96.75
61900;BME280;47853;55.890;37.664;2023-07-22T02:34:16;98657.06;;;18.95;93.67
61900;BME280;47853;55.890;37.664;2023-07-22T02:37:04;98607.78;;;18.48;96.87
61900;BME280;47853;55.890;37.664;2023-07-22T02:42:17;98643.09;;;19.10;91.96
61900;BME280;47853;55.890;37.664;2023-07-22T02:45:15;98641.63;;;18.61;95.92
61900;BME280;47853;55.890;37.664;2023-07-22T02:48:05;98680.34;;;19.30;94.25
61900;BME280;47853;55.890;37.664;2023-07-22T02:54:08;98670.88;;;19.45;92.13
61900;BME280;47853;55.890;37.664;2023-07-22T02:56:33;98617.16;;;18.34;95.78
61900;BME280;47853;55.890;37.664;2023-07-22T02:59:02;98689.16;;;19.42;93.29
61900;BME280;47853;55.890;37.664;2023-07-22T03:07:57;98682.38;;;18.82;97.27
61900;BME280;47853;55.890;37.664;2023-07-22T03:14:17;98643.59;;;18.66;96.86
61900;BME280;47853;55.890;37.664;2023-07-22T03:20:38;98641.41;;;18.92;94.06
61900;BME280;47853;55.890;37.664;2023-07-22T03:26:10;98681.56;;;19.39;92.75
61900;BME280;47853;55.890;37.664;2023-07-22T03:29:01;98659.59;;;19.31;92.06
61900;BME280;47853;55.890;37.664;2023-07-22T03:31:27;98699.84;;;19.08;92.95
61900;BME280;47853;55.890;37.664;2023-07-22T03:34:23;98708.44;;;19.68;90.95
61900;BME280;47853;55.890;37.664;2023-07-22T03:52:23;98682.44;;;20.53;78.86
61900;BME280;47853;55.890;37.664;2023-07-22T03:58:31;98661.22;;;20.17;79.67
61900;BME280;47853;55.890;37.664;2023-07-22T04:01:19;98693.47;;;20.73;77.94
61900;BME280;47853;55.890;37.664;2023-07-22T04:07:12;98720.69;;;20.89;75.51
61900;BME280;47853;55.890;37.664;2023-07-22T04:12:34;98724.25;;;20.95;77.39
61900;BME280;47853;55.890;37.664;2023-07-22T04:15:00;98720.78;;;20.55;78.82
61900;BME280;47853;55.890;37.664;2023-07-22T04:17:25;98714.06;;;20.57;78.29
61900;BME280;47853;55.890;37.664;2023-07-22T04:19:59;98672.09;;;20.67;73.57
61900;BME280;47853;55.890;37.664;2023-07-22T04:22:56;98704.69;;;20.82;77.03
61900;BME280;47853;55.890;37.664;2023-07-22T04:28:50;98690.38;;;20.60;76.47
61900;BME280;47853;55.890;37.664;2023-07-22T04:31:17;98720.72;;;21.17;75.69
61900;BME280;47853;55.890;37.664;2023-07-22T04:33:49;98703.59;;;21.33;72.72
61900;BME280;47853;55.890;37.664;2023-07-22T04:36:17;98704.47;;;21.11;72.94
61900;BME280;47853;55.890;37.664;2023-07-22T04:41:20;98712.00;;;21.09;72.98
61900;BME280;47853;55.890;37.664;2023-07-22T04:43:52;98688.56;;;20.26;78.33
61900;BME280;47853;55.890;37.664;2023-07-22T04:46:27;98714.66;;;20.20;80.33
61900;BME280;47853;55.890;37.664;2023-07-22T04:48:56;98686.16;;;20.47;76.78
61900;BME280;47853;55.890;37.664;2023-07-22T04:51:21;98692.78;;;19.99;80.00
61900;BME280;47853;55.890;37.664;2023-07-22T04:53:58;98717.28;;;20.99;76.91
61900;BME280;47853;55.890;37.664;2023-07-22T04:56:56;98706.38;;;21.16;72.82
61900;BME280;47853;55.890;37.664;2023-07-22T04:59:21;98709.78;;;20.79;77.90
61900;BME280;47853;55.890;37.664;2023-07-22T05:01:46;98722.50;;;21.33;73.29
61900;BME280;47853;55.890;37.664;2023-07-22T05:04:21;98741.13;;;21.62;71.00
61900;BME280;47853;55.890;37.664;2023-07-22T05:06:46;98739.81;;;21.65;71.30
61900;BME280;47853;55.890;37.664;2023-07-22T05:09:12;98701.16;;;21.32;69.71
61900;BME280;47853;55.890;37.664;2023-07-22T05:11:37;98717.00;;;20.78;75.59
61900;BME280;47853;55.890;37.664;2023-07-22T05:14:02;98703.47;;;20.51;75.86
61900;BME280;47853;55.890;37.664;2023-07-22T05:16:31;98735.00;;;20.72;76.94
61900;BME280;47853;55.890;37.664;2023-07-22T05:18:56;98680.13;;;21.06;72.95
61900;BME280;47853;55.890;37.664;2023-07-22T05:21:21;98721.28;;;21.73;70.47
61900;BME280;47853;55.890;37.664;2023-07-22T05:23:52;98681.88;;;22.21;64.75
61900;BME280;47853;55.890;37.664;2023-07-22T05:26:17;98700.72;;;22.53;64.01
61900;BME280;47853;55.890;37.664;2023-07-22T05:28:43;98740.91;;;22.34;65.32
61900;BME280;47853;55.890;37.664;2023-07-22T05:31:15;98712.38;;;23.64;59.62
61900;BME280;47853;55.890;37.664;2023-07-22T05:33:40;98721.41;;;24.87;53.59
61900;BME280;47853;55.890;37.664;2023-07-22T05:36:06;98678.44;;;23.05;59.69
61900;BME280;47853;55.890;37.664;2023-07-22T05:38:31;98733.69;;;23.09;61.92
61900;BME280;47853;55.890;37.664;2023-07-22T05:41:05;98737.00;;;22.63;63.24
61900;BME280;47853;55.890;37.664;2023-07-22T05:43:30;98732.44;;;23.42;61.45
61900;BME280;47853;55.890;37.664;2023-07-22T05:45:56;98694.28;;;22.70;62.55
61900;BME280;47853;55.890;37.664;2023-07-22T05:48:31;98719.44;;;24.07;58.11
61900;BME280;47853;55.890;37.664;2023-07-22T05:51:16;98703.72;;;24.14;55.60
61900;BME280;47853;55.890;37.664;2023-07-22T05:53:56;98728.41;;;24.02;54.09
61900;BME280;47853;55.890;37.664;2023-07-22T05:56:56;98732.19;;;23.70;57.75
61900;BME280;47853;55.890;37.664;2023-07-22T06:02:17;98676.53;;;25.00;48.43
61900;BME280;47853;55.890;37.664;2023-07-22T06:04:45;98690.91;;;25.51;48.88
61900;BME280;47853;55.890;37.664;2023-07-22T06:07:10;98737.16;;;24.85;50.95
61900;BME280;47853;55.890;37.664;2023-07-22T06:09:36;98725.88;;;26.76;44.36
61900;BME280;47853;55.890;37.664;2023-07-22T06:12:04;98724.88;;;28.48;40.87
61900;BME280;47853;55.890;37.664;2023-07-22T06:14:53;98687.50;;;26.97;41.72
61900;BME280;47853;55.890;37.664;2023-07-22T06:17:18;98736.69;;;30.18;36.81
61900;BME280;47853;55.890;37.664;2023-07-22T06:19:43;98726.81;;;30.49;35.31
61900;BME280;47853;55.890;37.664;2023-07-22T06:22:08;98724.19;;;30.03;33.80
61900;BME280;47853;55.890;37.664;2023-07-22T06:24:45;98687.16;;;25.76;43.18
61900;BME280;47853;55.890;37.664;2023-07-22T06:27:10;98717.53;;;26.18;44.69
61900;BME280;47853;55.890;37.664;2023-07-22T06:29:38;98677.59;;;28.05;39.16
61900;BME280;47853;55.890;37.664;2023-07-22T06:34:56;98717.69;;;27.58;39.45
61900;BME280;47853;55.890;37.664;2023-07-22T06:37:33;98717.38;;;26.04;44.84
61900;BME280;47853;55.890;37.664;2023-07-22T06:40:01;98731.06;;;25.14;46.96
61900;BME280;47853;55.890;37.664;2023-07-22T06:42:26;98741.50;;;26.16;45.96
61900;BME280;47853;55.890;37.664;2023-07-22T06:44:52;98688.72;;;26.42;45.58
61900;BME280;47853;55.890;37.664;2023-07-22T06:47:18;98740.63;;;26.70;43.52
61900;BME280;47853;55.890;37.664;2023-07-22T06:49:49;98725.84;;;26.32;43.37
61900;BME280;47853;55.890;37.664;2023-07-22T06:52:14;98695.94;;;25.68;44.43
61900;BME280;47853;55.890;37.664;2023-07-22T06:54:40;98732.25;;;26.42;44.06
61900;BME280;47853;55.890;37.664;2023-07-22T06:57:06;98725.59;;;25.19;47.98
61900;BME280;47853;55.890;37.664;2023-07-22T06:59:31;98667.59;;;27.54;40.89
61900;BME280;47853;55.890;37.664;2023-07-22T07:02:08;98702.72;;;26.30;42.91
61900;BME280;47853;55.890;37.664;2023-07-22T07:04:42;98728.09;;;27.56;40.23
61900;BME280;47853;55.890;37.664;2023-07-22T07:07:16;98718.81;;;28.51;37.80
61900;BME280;47853;55.890;37.664;2023-07-22T07:09:46;98694.84;;;27.34;40.37
61900;BME280;47853;55.890;37.664;2023-07-22T07:12:17;98732.75;;;28.91;36.46
61900;BME280;47853;55.890;37.664;2023-07-22T07:14:49;98686.47;;;28.58;36.27
61900;BME280;47853;55.890;37.664;2023-07-22T07:17:18;98713.72;;;26.92;39.36
61900;BME280;47853;55.890;37.664;2023-07-22T07:19:43;98735.63;;;26.33;40.16
61900;BME280;47853;55.890;37.664;2023-07-22T07:22:08;98751.00;;;26.43;40.26
61900;BME280;47853;55.890;37.664;2023-07-22T07:24:34;98701.00;;;25.80;41.99
61900;BME280;47853;55.890;37.664;2023-07-22T07:26:59;98676.00;;;25.78;41.29
61900;BME280;47853;55.890;37.664;2023-07-22T07:29:24;98717.72;;;26.52;40.52
61900;BME280;47853;55.890;37.664;2023-07-22T07:31:50;98720.19;;;28.06;36.96
61900;BME280;47853;55.890;37.664;2023-07-22T07:34:15;98693.75;;;29.50;34.29
61900;BME280;47853;55.890;37.664;2023-07-22T07:36:41;98685.41;;;28.12;35.54
61900;BME280;47853;55.890;37.664;2023-07-22T07:39:06;98747.81;;;28.19;36.87
61900;BME280;47853;55.890;37.664;2023-07-22T07:41:31;98696.44;;;27.74;37.41
61900;BME280;47853;55.890;37.664;2023-07-22T07:43:57;98726.75;;;27.72;37.28
61900;BME280;47853;55.890;37.664;2023-07-22T07:46:24;98729.81;;;26.11;41.72
61900;BME280;47853;55.890;37.664;2023-07-22T07:48:56;98719.66;;;25.92;42.01
61900;BME280;47853;55.890;37.664;2023-07-22T07:51:51;98679.66;;;25.63;43.21
61900;BME280;47853;55.890;37.664;2023-07-22T07:54:16;98671.34;;;26.81;40.17
61900;BME280;47853;55.890;37.664;2023-07-22T07:56:42;98698.16;;;27.70;36.45
61900;BME280;47853;55.890;37.664;2023-07-22T07:59:10;98704.88;;;28.05;36.28
61900;BME280;47853;55.890;37.664;2023-07-22T08:01:36;98713.22;;;27.81;37.38
61900;BME280;47853;55.890;37.664;2023-07-22T08:04:01;98711.00;;;28.16;37.43
61900;BME280;47853;55.890;37.664;2023-07-22T08:06:26;98708.44;;;26.77;39.70
61900;BME280;47853;55.890;37.664;2023-07-22T08:08:52;98680.69;;;26.75;40.21
61900;BME280;47853;55.890;37.664;2023-07-22T08:11:17;98669.13;;;26.64;39.92
61900;BME280;47853;55.890;37.664;2023-07-22T08:13:49;98689.13;;;26.98;38.80
61900;BME280;47853;55.890;37.664;2023-07-22T08:16:17;98724.13;;;27.81;37.44
61900;BME280;47853;55.890;37.664;2023-07-22T08:18:42;98689.03;;;27.60;36.25
61900;BME280;47853;55.890;37.664;2023-07-22T08:21:07;98710.63;;;28.51;35.45
61900;BME280;47853;55.890;37.664;2023-07-22T08:23:33;98730.84;;;29.43;33.75
61900;BME280;47853;55.890;37.664;2023-07-22T08:26:02;98672.03;;;29.77;31.81
61900;BME280;47853;55.890;37.664;2023-07-22T08:28:55;98712.41;;;32.07;29.10
61900;BME280;47853;55.890;37.664;2023-07-22T08:31:40;98721.16;;;29.82;30.78
61900;BME280;47853;55.890;37.664;2023-07-22T08:37:20;98731.91;;;27.35;36.10
61900;BME280;47853;55.890;37.664;2023-07-22T08:39:48;98679.09;;;27.31;35.45
61900;BME280;47853;55.890;37.664;2023-07-22T08:42:28;98741.06;;;25.24;39.30
61900;BME280;47853;55.890;37.664;2023-07-22T08:44:57;98737.97;;;26.40;37.29
61900;BME280;47853;55.890;37.664;2023-07-22T08:47:28;98714.94;;;27.39;36.02
61900;BME280;47853;55.890;37.664;2023-07-22T08:49:58;98702.88;;;29.69;31.54
61900;BME280;47853;55.890;37.664;2023-07-22T08:52:28;98691.41;;;28.28;33.84
61900;BME280;47853;55.890;37.664;2023-07-22T08:54:54;98694.75;;;27.40;36.65
61900;BME280;47853;55.890;37.664;2023-07-22T08:57:29;98677.91;;;30.24;31.87
61900;BME280;47853;55.890;37.664;2023-07-22T09:00:05;98708.03;;;30.65;31.37
61900;BME280;47853;55.890;37.664;2023-07-22T09:02:33;98732.34;;;28.98;33.49
61900;BME280;47853;55.890;37.664;2023-07-22T09:04:59;98690.75;;;27.56;35.85
61900;BME280;47853;55.890;37.664;2023-07-22T09:07:28;98743.19;;;28.00;35.99
61900;BME280;47853;55.890;37.664;2023-07-22T09:09:53;98719.41;;;29.04;34.19
61900;BME280;47853;55.890;37.664;2023-07-22T09:12:21;98694.25;;;28.51;33.97
61900;BME280;47853;55.890;37.664;2023-07-22T09:14:49;98701.94;;;27.88;34.33
61900;BME280;47853;55.890;37.664;2023-07-22T09:17:27;98758.44;;;27.11;36.44
61900;BME280;47853;55.890;37.664;2023-07-22T09:19:53;98742.13;;;26.86;36.79
61900;BME280;47853;55.890;37.664;2023-07-22T09:22:45;98679.66;;;27.67;34.74
61900;BME280;47853;55.890;37.664;2023-07-22T09:25:24;98735.28;;;28.46;33.63
61900;BME280;47853;55.890;37.664;2023-07-22T09:28:13;98725.03;;;29.07;33.41
61900;BME280;47853;55.890;37.664;2023-07-22T09:30:40;98717.84;;;28.14;32.94
61900;BME280;47853;55.890;37.664;2023-07-22T09:33:07;98712.34;;;29.26;32.11
61900;BME280;47853;55.890;37.664;2023-07-22T09:35:51;98740.88;;;29.47;31.46
61900;BME280;47853;55.890;37.664;2023-07-22T09:38:23;98731.09;;;29.18;31.97
61900;BME280;47853;55.890;37.664;2023-07-22T09:40:56;98722.47;;;29.62;31.39
61900;BME280;47853;55.890;37.664;2023-07-22T09:43:36;98682.66;;;31.26;28.93
61900;BME280;47853;55.890;37.664;2023-07-22T09:49:21;98729.25;;;30.50;29.56
61900;BME280;47853;55.890;37.664;2023-07-22T09:51:47;98695.13;;;30.25;29.12
61900;BME280;47853;55.890;37.664;2023-07-22T09:54:12;98705.84;;;27.82;33.38
61900;BME280;47853;55.890;37.664;2023-07-22T09:56:48;98723.16;;;27.19;35.43
61900;BME280;47853;55.890;37.664;2023-07-22T09:59:14;98731.22;;;31.52;29.25
61900;BME280;47853;55.890;37.664;2023-07-22T10:01:43;98710.31;;;34.99;25.04
61900;BME280;47853;55.890;37.664;2023-07-22T10:04:10;98756.50;;;32.02;26.68
61900;BME280;47853;55.890;37.664;2023-07-22T10:06:38;98716.53;;;27.78;31.13
61900;BME280;47853;55.890;37.664;2023-07-22T10:09:05;98718.69;;;28.28;32.35
61900;BME280;47853;55.890;37.664;2023-07-22T10:11:31;98738.00;;;28.46;31.38
61900;BME280;47853;55.890;37.664;2023-07-22T10:13:56;98758.53;;;27.96;32.97
61900;BME280;47853;55.890;37.664;2023-07-22T10:16:30;98741.59;;;27.66;34.18
61900;BME280;47853;55.890;37.664;2023-07-22T10:18:57;98746.47;;;28.16;33.14
61900;BME280;47853;55.890;37.664;2023-07-22T10:21:24;98756.72;;;29.82;30.15
61900;BME280;47853;55.890;37.664;2023-07-22T10:23:50;98714.84;;;27.82;32.67
61900;BME280;47853;55.890;37.664;2023-07-22T10:26:19;98710.41;;;28.19;32.58
61900;BME280;47853;55.890;37.664;2023-07-22T10:28:47;98708.00;;;29.61;30.03
61900;BME280;47853;55.890;37.664;2023-07-22T10:31:13;98743.34;;;27.57;33.08
61900;BME280;47853;55.890;37.664;2023-07-22T10:33:39;98748.66;;;26.85;35.17
61900;BME280;47853;55.890;37.664;2023-07-22T10:36:07;98746.31;;;28.55;32.73
61900;BME280;47853;55.890;37.664;2023-07-22T10:38:34;98733.59;;;28.78;29.16
61900;BME280;47853;55.890;37.664;2023-07-22T10:41:00;98740.13;;;27.88;30.85
61900;BME280;47853;55.890;37.664;2023-07-22T10:43:31;98728.69;;;29.54;28.95
61900;BME280;47853;55.890;37.664;2023-07-22T10:48:34;98759.78;;;28.04;28.32
61900;BME280;47853;55.890;37.664;2023-07-22T10:51:06;98755.69;;;28.20;30.12
61900;BME280;47853;55.890;37.664;2023-07-22T10:53:32;98756.00;;;27.67;30.81
61900;BME280;47853;55.890;37.664;2023-07-22T10:58:33;98774.41;;;27.75;29.58
61900;BME280;47853;55.890;37.664;2023-07-22T11:11:55;98757.50;;;31.27;25.51
61900;BME280;47853;55.890;37.664;2023-07-22T11:14:37;98764.06;;;31.08;25.89
61900;BME280;47853;55.890;37.664;2023-07-22T11:17:04;98741.91;;;30.37;26.75
61900;BME280;47853;55.890;37.664;2023-07-22T11:19:30;98731.91;;;30.73;25.95
61900;BME280;47853;55.890;37.664;2023-07-22T11:21:56;98779.19;;;28.63;28.34
61900;BME280;47853;55.890;37.664;2023-07-22T11:24:23;98755.50;;;30.51;26.95
61900;BME280;47853;55.890;37.664;2023-07-22T11:26:50;98718.53;;;29.77;27.37
61900;BME280;47853;55.890;37.664;2023-07-22T11:29:16;98749.25;;;28.86;28.66
61900;BME280;47853;55.890;37.664;2023-07-22T11:31:48;98766.63;;;30.55;27.12
61900;BME280;47853;55.890;37.664;2023-07-22T11:34:18;98717.13;;;29.20;27.86
61900;BME280;47853;55.890;37.664;2023-07-22T11:36:44;98721.00;;;27.35;29.46
61900;BME280;47853;55.890;37.664;2023-07-22T11:39:12;98781.00;;;28.40;29.22
61900;BME280;47853;55.890;37.664;2023-07-22T11:41:44;98739.13;;;27.45;30.13
61900;BME280;47853;55.890;37.664;2023-07-22T11:44:37;98783.06;;;26.76;30.95
61900;BME280;47853;55.890;37.664;2023-07-22T11:47:12;98707.25;;;27.27;30.40
61900;BME280;47853;55.890;37.664;2023-07-22T11:49:47;98693.94;;;28.39;27.69
61900;BME280;47853;55.890;37.664;2023-07-22T11:52:21;98755.34;;;28.97;27.54
61900;BME280;47853;55.890;37.664;2023-07-22T11:54:47;98735.53;;;29.42;26.26
61900;BME280;47853;55.890;37.664;2023-07-22T11:57:18;98753.06;;;27.44;28.71
61900;BME280;47853;55.890;37.664;2023-07-22T11:59:45;98770.53;;;28.14;28.42
61900;BME280;47853;55.890;37.664;2023-07-22T12:02:15;98788.28;;;26.72;30.02
61900;BME280;47853;55.890;37.664;2023-07-22T12:04:41;98707.53;;;27.06;30.07
61900;BME280;47853;55.890;37.664;2023-07-22T12:07:27;98717.19;;;29.65;26.79
61900;BME280;47853;55.890;37.664;2023-07-22T12:09:54;98732.38;;;28.84;27.12
61900;BME280;47853;55.890;37.664;2023-07-22T12:12:42;98777.28;;;29.57;26.97
61900;BME280;47853;55.890;37.664;2023-07-22T12:17:55;98766.97;;;29.03;27.70
61900;BME280;47853;55.890;37.664;2023-07-22T12:20:25;98777.84;;;29.31;27.10
61900;BME280;47853;55.890;37.664;2023-07-22T12:22:54;98726.53;;;30.59;26.11
61900;BME280;47853;55.890;37.664;2023-07-22T12:25:34;98710.09;;;28.49;27.77
61900;BME280;47853;55.890;37.664;2023-07-22T12:27:59;98722.88;;;26.53;30.46
61900;BME280;47853;55.890;37.664;2023-07-22T12:30:25;98721.94;;;26.87;31.20
61900;BME280;47853;55.890;37.664;2023-07-22T12:32:50;98729.06;;;26.34;31.70
61900;BME280;47853;55.890;37.664;2023-07-22T12:35:15;98729.34;;;25.74;31.87
61900;BME280;47853;55.890;37.664;2023-07-22T12:37:41;98714.47;;;26.25;31.77
61900;BME280;47853;55.890;37.664;2023-07-22T12:40:06;98769.06;;;28.36;30.31
61900;BME280;47853;55.890;37.664;2023-07-22T12:42:32;98766.25;;;28.55;32.87
61900;BME280;47853;55.890;37.664;2023-07-22T12:44:57;98769.44;;;29.27;32.79
61900;BME280;47853;55.890;37.664;2023-07-22T12:47:23;98732.81;;;27.31;37.93
61900;BME280;47853;55.890;37.664;2023-07-22T12:49:48;98744.00;;;28.01;37.90
61900;BME280;47853;55.890;37.664;2023-07-22T12:52:14;98780.69;;;27.75;38.80
61900;BME280;47853;55.890;37.664;2023-07-22T12:54:39;98725.56;;;27.02;41.26
61900;BME280;47853;55.890;37.664;2023-07-22T12:57:05;98731.09;;;26.97;44.20
61900;BME280;47853;55.890;37.664;2023-07-22T12:59:30;98751.88;;;27.12;48.11
61900;BME280;47853;55.890;37.664;2023-07-22T13:01:56;98723.88;;;27.25;42.59
61900;BME280;47853;55.890;37.664;2023-07-22T13:04:21;98741.84;;;27.45;42.80
61900;BME280;47853;55.890;37.664;2023-07-22T13:06:47;98721.56;;;28.37;39.12
61900;BME280;47853;55.890;37.664;2023-07-22T13:09:15;98735.41;;;28.97;35.24
61900;BME280;47853;55.890;37.664;2023-07-22T13:11:40;98729.88;;;31.14;31.35
61900;BME280;47853;55.890;37.664;2023-07-22T13:14:06;98729.03;;;33.31;28.03
61900;BME280;47853;55.890;37.664;2023-07-22T13:16:31;98726.19;;;35.43;24.62
61900;BME280;47853;55.890;37.664;2023-07-22T13:18:59;98722.72;;;35.75;23.93
61900;BME280;47853;55.890;37.664;2023-07-22T13:21:24;98717.09;;;35.02;23.35
61900;BME280;47853;55.890;37.664;2023-07-22T13:23:50;98741.94;;;36.16;22.10
61900;BME280;47853;55.890;37.664;2023-07-22T13:26:15;98730.22;;;32.39;23.98
61900;BME280;47853;55.890;37.664;2023-07-22T13:28:40;98699.72;;;30.38;26.23
61900;BME280;47853;55.890;37.664;2023-07-22T13:31:06;98744.44;;;31.76;24.64
61900;BME280;47853;55.890;37.664;2023-07-22T13:33:31;98732.72;;;30.74;26.17
61900;BME280;47853;55.890;37.664;2023-07-22T13:35:57;98691.34;;;31.10;26.14
61900;BME280;47853;55.890;37.664;2023-07-22T13:38:22;98717.50;;;31.52;26.29
61900;BME280;47853;55.890;37.664;2023-07-22T13:40:47;98705.72;;;31.16;26.25
61900;BME280;47853;55.890;37.664;2023-07-22T13:43:13;98711.38;;;29.90;28.15
61900;BME280;47853;55.890;37.664;2023-07-22T13:45:41;98678.25;;;31.78;26.43
61900;BME280;47853;55.890;37.664;2023-07-22T13:48:06;98675.34;;;31.57;25.89
61900;BME280;47853;55.890;37.664;2023-07-22T13:50:31;98721.50;;;31.90;26.76
61900;BME280;47853;55.890;37.664;2023-07-22T13:52:57;98712.66;;;31.75;26.78
61900;BME280;47853;55.890;37.664;2023-07-22T13:55:22;98708.03;;;32.53;26.75
61900;BME280;47853;55.890;37.664;2023-07-22T13:57:47;98718.81;;;33.19;25.33
61900;BME280;47853;55.890;37.664;2023-07-22T14:00:13;98663.63;;;29.05;29.69
61900;BME280;47853;55.890;37.664;2023-07-22T14:02:38;98683.78;;;28.95;30.19
61900;BME280;47853;55.890;37.664;2023-07-22T14:05:09;98684.19;;;30.25;28.01
61900;BME280;47853;55.890;37.664;2023-07-22T14:07:35;98686.53;;;29.55;29.22
61900;BME280;47853;55.890;37.664;2023-07-22T14:10:01;98695.16;;;28.32;30.37
61900;BME280;47853;55.890;37.664;2023-07-22T14:12:26;98718.69;;;29.35;29.71
61900;BME280;47853;55.890;37.664;2023-07-22T14:14:51;98708.19;;;27.55;32.23
61900;BME280;47853;55.890;37.664;2023-07-22T14:17:17;98731.06;;;27.92;32.47
61900;BME280;47853;55.890;37.664;2023-07-22T14:19:42;98712.94;;;27.83;31.89
61900;BME280;47853;55.890;37.664;2023-07-22T14:22:08;98727.97;;;27.80;32.43
61900;BME280;47853;55.890;37.664;2023-07-22T14:24:33;98707.75;;;26.90;33.13
61900;BME280;47853;55.890;37.664;2023-07-22T14:26:59;98702.31;;;26.90;33.46
61900;BME280;47853;55.890;37.664;2023-07-22T14:29:24;98722.25;;;28.99;30.97
61900;BME280;47853;55.890;37.664;2023-07-22T14:31:50;98715.19;;;27.42;31.93
61900;BME280;47853;55.890;37.664;2023-07-22T14:34:15;98726.38;;;26.29;33.94
61900;BME280;47853;55.890;37.664;2023-07-22T14:36:40;98714.75;;;26.72;34.11
61900;BME280;47853;55.890;37.664;2023-07-22T14:39:06;98728.16;;;27.12;33.74
61900;BME280;47853;55.890;37.664;2023-07-22T14:41:31;98681.06;;;26.44;34.66
61900;BME280;47853;55.890;37.664;2023-07-22T14:43:56;98701.38;;;27.19;34.64
61900;BME280;47853;55.890;37.664;2023-07-22T14:46:22;98699.84;;;26.89;34.99
61900;BME280;47853;55.890;37.664;2023-07-22T14:48:47;98699.34;;;27.44;33.80
61900;BME280;47853;55.890;37.664;2023-07-22T14:51:13;98714.16;;;27.57;33.64
61900;BME280;47853;55.890;37.664;2023-07-22T14:53:38;98713.22;;;28.14;32.79
61900;BME280;47853;55.890;37.664;2023-07-22T14:56:03;98705.09;;;29.21;31.24
61900;BME280;47853;55.890;37.664;2023-07-22T14:58:29;98720.38;;;28.10;33.13
61900;BME280;47853;55.890;37.664;2023-07-22T15:00:54;98685.97;;;27.95;32.64
61900;BME280;47853;55.890;37.664;2023-07-22T15:03:20;98697.56;;;29.27;31.76
61900;BME280;47853;55.890;37.664;2023-07-22T15:05:45;98709.50;;;27.91;32.33
61900;BME280;47853;55.890;37.664;2023-07-22T15:08:10;98702.16;;;28.05;32.97
61900;BME280;47853;55.890;37.664;2023-07-22T15:10:36;98676.69;;;27.96;33.05
61900;BME280;47853;55.890;37.664;2023-07-22T15:13:01;98689.66;;;28.88;31.75
61900;BME280;47853;55.890;37.664;2023-07-22T15:15:27;98702.75;;;29.51;31.37
61900;BME280;47853;55.890;37.664;2023-07-22T15:17:52;98695.59;;;29.64;30.55
61900;BME280;47853;55.890;37.664;2023-07-22T15:20:18;98699.63;;;29.89;30.48
61900;BME280;47853;55.890;37.664;2023-07-22T15:22:43;98697.63;;;30.44;29.96